sensor_id;sensor_type;location;lat;lon;timestamp;P1;durP1;ratioP1;P2;durP2;ratioP2
68714;SDS011;55692;53.356;10.030;2023-06-10T00:00:41;17.38;;;4.65;;
68714;SDS011;55692;53.356;10.030;2023-06-10T00:03:07;10.57;;;4.38;;
68714;SDS011;55692;53.356;10.030;2023-06-10T00:05:34;9.45;;;4.55;;
68714;SDS011;55692;53.356;10.030;2023-06-10T00:08:01;13.93;;;5.13;;
68714;SDS011;55692;53.356;10.030;2023-06-10T00:10:35;16.50;;;6.18;;
68714;SDS011;55692;53.356;10.030;2023-06-10T00:13:05;13.70;;;4.95;;
68714;SDS011;55692;53.356;10.030;2023-06-10T00:15:36;13.38;;;5.43;;
68714;SDS011;55692;53.356;10.030;2023-06-10T00:18:02;16.05;;;5.57;;
68714;SDS011;55692;53.356;10.030;2023-06-10T00:20:28;17.85;;;5.97;;
68714;SDS011;55692;53.356;10.030;2023-06-10T00:22:55;11.63;;;5.28;;
68714;SDS011;55692;53.356;10.030;2023-06-10T00:25:22;14.32;;;5.25;;
68714;SDS011;55692;53.356;10.030;2023-06-10T00:27:48;12.02;;;5.03;;
68714;SDS011;55692;53.356;10.030;2023-06-10T00:30:14;12.95;;;5.97;;
68714;SDS011;55692;53.356;10.030;2023-06-10T00:32:40;13.70;;;5.22;;
68714;SDS011;55692;53.356;10.030;2023-06-10T00:35:06;11.82;;;4.93;;
68714;SDS011;55692;53.356;10.030;2023-06-10T00:37:32;13.63;;;4.57;;
68714;SDS011;55692;53.356;10.030;2023-06-10T00:40:00;12.20;;;4.47;;
68714;SDS011;55692;53.356;10.030;2023-06-10T00:42:26;12.60;;;4.60;;
68714;SDS011;55692;53.356;10.030;2023-06-10T00:44:53;12.75;;;4.68;;
68714;SDS011;55692;53.356;10.030;2023-06-10T00:47:20;12.55;;;4.32;;
68714;SDS011;55692;53.356;10.030;2023-06-10T00:49:47;14.60;;;5.15;;
68714;SDS011;55692;53.356;10.030;2023-06-10T00:52:13;9.45;;;4.07;;
68714;SDS011;55692;53.356;10.030;2023-06-10T00:54:40;12.98;;;4.85;;
68714;SDS011;55692;53.356;10.030;2023-06-10T00:57:07;10.00;;;4.18;;
68714;SDS011;55692;53.356;10.030;2023-06-10T00:59:33;15.13;;;4.57;;
68714;SDS011;55692;53.356;10.030;2023-06-10T01:01:59;14.48;;;4.75;;
68714;SDS011;55692;53.356;10.030;2023-06-10T01:04:27;11.38;;;4.97;;
68714;SDS011;55692;53.356;10.030;2023-06-10T01:07:28;9.68;;;4.20;;
68714;SDS011;55692;53.356;10.030;2023-06-10T01:09:46;10.32;;;4.43;;
68714;SDS011;55692;53.356;10.030;2023-06-10T01:12:34;12.65;;;4.68;;
68714;SDS011;55692;53.356;10.030;2023-06-10T01:15:02;14.55;;;4.70;;
68714;SDS011;55692;53.356;10.030;2023-06-10T01:17:29;13.93;;;3.72;;
68714;SDS011;55692;53.356;10.030;2023-06-10T01:19:58;9.38;;;4.40;;
68714;SDS011;55692;53.356;10.030;2023-06-10T01:22:27;13.32;;;3.80;;
68714;SDS011;55692;53.356;10.030;2023-06-10T01:24:54;14.38;;;4.43;;
68714;SDS011;55692;53.356;10.030;2023-06-10T01:27:23;11.05;;;4.43;;
68714;SDS011;55692;53.356;10.030;2023-06-10T01:29:59;9.23;;;4.63;;
68714;SDS011;55692;53.356;10.030;2023-06-10T01:32:37;9.50;;;4.50;;
68714;SDS011;55692;53.356;10.030;2023-06-10T01:35:04;10.52;;;4.18;;
68714;SDS011;55692;53.356;10.030;2023-06-10T01:37:31;16.40;;;4.80;;
68714;SDS011;55692;53.356;10.030;2023-06-10T01:39:58;13.50;;;4.47;;
68714;SDS011;55692;53.356;10.030;2023-06-10T01:42:24;10.95;;;4.40;;
68714;SDS011;55692;53.356;10.030;2023-06-10T01:44:51;12.35;;;4.47;;
68714;SDS011;55692;53.356;10.030;2023-06-10T01:47:17;14.18;;;4.38;;
68714;SDS011;55692;53.356;10.030;2023-06-10T01:49:43;10.70;;;4.93;;
68714;SDS011;55692;53.356;10.030;2023-06-10T01:52:09;12.25;;;4.40;;
68714;SDS011;55692;53.356;10.030;2023-06-10T01:54:35;10.02;;;4.45;;
68714;SDS011;55692;53.356;10.030;2023-06-10T01:57:01;12.07;;;4.80;;
68714;SDS011;55692;53.356;10.030;2023-06-10T01:59:27;9.52;;;4.97;;
68714;SDS011;55692;53.356;10.030;2023-06-10T02:01:53;16.40;;;4.20;;
68714;SDS011;55692;53.356;10.030;2023-06-10T02:04:19;13.90;;;4.72;;
68714;SDS011;55692;53.356;10.030;2023-06-10T02:06:45;9.50;;;4.20;;
68714;SDS011;55692;53.356;10.030;2023-06-10T02:09:11;15.48;;;4.68;;
68714;SDS011;55692;53.356;10.030;2023-06-10T02:11:37;9.35;;;4.05;;
68714;SDS011;55692;53.356;10.030;2023-06-10T02:14:03;9.20;;;4.10;;
68714;SDS011;55692;53.356;10.030;2023-06-10T02:16:29;13.25;;;3.67;;
68714;SDS011;55692;53.356;10.030;2023-06-10T02:18:56;15.00;;;5.57;;
68714;SDS011;55692;53.356;10.030;2023-06-10T02:21:22;9.25;;;3.42;;
68714;SDS011;55692;53.356;10.030;2023-06-10T02:23:48;11.18;;;4.40;;
68714;SDS011;55692;53.356;10.030;2023-06-10T02:26:14;10.02;;;3.78;;
68714;SDS011;55692;53.356;10.030;2023-06-10T02:28:43;12.52;;;4.20;;
68714;SDS011;55692;53.356;10.030;2023-06-10T02:31:09;9.90;;;3.97;;
68714;SDS011;55692;53.356;10.030;2023-06-10T02:33:36;7.55;;;3.50;;
68714;SDS011;55692;53.356;10.030;2023-06-10T02:36:05;10.68;;;4.30;;
68714;SDS011;55692;53.356;10.030;2023-06-10T02:38:31;12.45;;;3.60;;
68714;SDS011;55692;53.356;10.030;2023-06-10T02:40:57;11.88;;;3.58;;
68714;SDS011;55692;53.356;10.030;2023-06-10T02:43:23;10.40;;;3.30;;
68714;SDS011;55692;53.356;10.030;2023-06-10T02:45:55;11.70;;;4.15;;
68714;SDS011;55692;53.356;10.030;2023-06-10T02:48:24;11.18;;;3.20;;
68714;SDS011;55692;53.356;10.030;2023-06-10T02:50:50;10.23;;;3.15;;
68714;SDS011;55692;53.356;10.030;2023-06-10T02:53:16;11.05;;;3.40;;
68714;SDS011;55692;53.356;10.030;2023-06-10T02:55:42;10.60;;;4.07;;
68714;SDS011;55692;53.356;10.030;2023-06-10T02:58:09;9.05;;;3.10;;
68714;SDS011;55692;53.356;10.030;2023-06-10T03:00:35;8.20;;;3.13;;
68714;SDS011;55692;53.356;10.030;2023-06-10T03:03:02;12.25;;;4.20;;
68714;SDS011;55692;53.356;10.030;2023-06-10T03:05:31;8.07;;;3.30;;
68714;SDS011;55692;53.356;10.030;2023-06-10T03:07:57;8.88;;;3.25;;
68714;SDS011;55692;53.356;10.030;2023-06-10T03:10:23;9.05;;;3.25;;
68714;SDS011;55692;53.356;10.030;2023-06-10T03:12:49;9.90;;;3.10;;
68714;SDS011;55692;53.356;10.030;2023-06-10T03:15:15;11.13;;;3.45;;
68714;SDS011;55692;53.356;10.030;2023-06-10T03:17:41;15.10;;;3.13;;
68714;SDS011;55692;53.356;10.030;2023-06-10T03:20:07;9.35;;;3.13;;
68714;SDS011;55692;53.356;10.030;2023-06-10T03:22:35;9.43;;;2.88;;
68714;SDS011;55692;53.356;10.030;2023-06-10T03:25:03;10.70;;;3.20;;
68714;SDS011;55692;53.356;10.030;2023-06-10T03:27:29;7.55;;;3.00;;
68714;SDS011;55692;53.356;10.030;2023-06-10T03:29:55;11.20;;;3.28;;
68714;SDS011;55692;53.356;10.030;2023-06-10T03:32:21;6.50;;;2.95;;
68714;SDS011;55692;53.356;10.030;2023-06-10T03:34:47;8.88;;;3.00;;
68714;SDS011;55692;53.356;10.030;2023-06-10T03:37:13;6.95;;;3.10;;
68714;SDS011;55692;53.356;10.030;2023-06-10T03:39:39;9.40;;;2.83;;
68714;SDS011;55692;53.356;10.030;2023-06-10T03:42:05;5.88;;;2.50;;
68714;SDS011;55692;53.356;10.030;2023-06-10T03:44:31;4.63;;;2.67;;
68714;SDS011;55692;53.356;10.030;2023-06-10T03:46:58;13.38;;;3.92;;
68714;SDS011;55692;53.356;10.030;2023-06-10T03:49:24;7.30;;;2.90;;
68714;SDS011;55692;53.356;10.030;2023-06-10T03:51:53;7.00;;;2.80;;
68714;SDS011;55692;53.356;10.030;2023-06-10T03:54:20;10.77;;;3.53;;
68714;SDS011;55692;53.356;10.030;2023-06-10T03:56:46;12.30;;;3.17;;
68714;SDS011;55692;53.356;10.030;2023-06-10T03:59:13;11.05;;;3.05;;
68714;SDS011;55692;53.356;10.030;2023-06-10T04:01:39;8.00;;;2.80;;
68714;SDS011;55692;53.356;10.030;2023-06-10T04:04:06;9.40;;;3.20;;
68714;SDS011;55692;53.356;10.030;2023-06-10T04:06:32;7.78;;;2.70;;
68714;SDS011;55692;53.356;10.030;2023-06-10T04:08:58;10.52;;;2.75;;
68714;SDS011;55692;53.356;10.030;2023-06-10T04:11:24;7.78;;;2.60;;
68714;SDS011;55692;53.356;10.030;2023-06-10T04:13:50;13.48;;;3.38;;
68714;SDS011;55692;53.356;10.030;2023-06-10T04:16:17;10.52;;;2.55;;
68714;SDS011;55692;53.356;10.030;2023-06-10T04:18:43;11.95;;;2.65;;
68714;SDS011;55692;53.356;10.030;2023-06-10T04:21:08;9.73;;;2.72;;
68714;SDS011;55692;53.356;10.030;2023-06-10T04:23:35;10.25;;;2.13;;
68714;SDS011;55692;53.356;10.030;2023-06-10T04:26:04;4.93;;;2.35;;
68714;SDS011;55692;53.356;10.030;2023-06-10T04:28:31;5.07;;;2.08;;
68714;SDS011;55692;53.356;10.030;2023-06-10T04:30:57;6.15;;;2.53;;
68714;SDS011;55692;53.356;10.030;2023-06-10T04:33:23;7.28;;;2.58;;
68714;SDS011;55692;53.356;10.030;2023-06-10T04:35:49;6.82;;;2.10;;
68714;SDS011;55692;53.356;10.030;2023-06-10T04:38:15;5.88;;;1.85;;
68714;SDS011;55692;53.356;10.030;2023-06-10T04:40:41;6.35;;;2.30;;
68714;SDS011;55692;53.356;10.030;2023-06-10T04:43:07;6.93;;;2.30;;
68714;SDS011;55692;53.356;10.030;2023-06-10T04:45:33;8.05;;;2.50;;
68714;SDS011;55692;53.356;10.030;2023-06-10T04:47:59;5.20;;;2.08;;
68714;SDS011;55692;53.356;10.030;2023-06-10T04:50:25;10.40;;;2.92;;
68714;SDS011;55692;53.356;10.030;2023-06-10T04:52:51;9.05;;;2.83;;
68714;SDS011;55692;53.356;10.030;2023-06-10T04:55:17;6.18;;;1.77;;
68714;SDS011;55692;53.356;10.030;2023-06-10T04:57:43;7.80;;;2.10;;
68714;SDS011;55692;53.356;10.030;2023-06-10T05:00:10;8.80;;;2.22;;
68714;SDS011;55692;53.356;10.030;2023-06-10T05:02:36;8.15;;;1.83;;
68714;SDS011;55692;53.356;10.030;2023-06-10T05:05:02;7.18;;;1.80;;
68714;SDS011;55692;53.356;10.030;2023-06-10T05:07:28;7.05;;;2.35;;
68714;SDS011;55692;53.356;10.030;2023-06-10T05:09:54;10.20;;;2.30;;
68714;SDS011;55692;53.356;10.030;2023-06-10T05:12:20;9.77;;;2.20;;
68714;SDS011;55692;53.356;10.030;2023-06-10T05:14:46;9.35;;;2.22;;
68714;SDS011;55692;53.356;10.030;2023-06-10T05:17:12;8.15;;;2.30;;
68714;SDS011;55692;53.356;10.030;2023-06-10T05:19:38;6.20;;;2.38;;
68714;SDS011;55692;53.356;10.030;2023-06-10T05:22:04;9.05;;;2.17;;
68714;SDS011;55692;53.356;10.030;2023-06-10T05:24:30;11.25;;;2.45;;
68714;SDS011;55692;53.356;10.030;2023-06-10T05:26:56;13.40;;;2.65;;
68714;SDS011;55692;53.356;10.030;2023-06-10T05:29:22;9.82;;;2.30;;
68714;SDS011;55692;53.356;10.030;2023-06-10T05:31:48;11.38;;;2.30;;
68714;SDS011;55692;53.356;10.030;2023-06-10T05:34:14;10.23;;;2.20;;
68714;SDS011;55692;53.356;10.030;2023-06-10T05:36:40;10.68;;;2.50;;
68714;SDS011;55692;53.356;10.030;2023-06-10T05:39:06;8.80;;;2.08;;
68714;SDS011;55692;53.356;10.030;2023-06-10T05:41:32;7.65;;;2.08;;
68714;SDS011;55692;53.356;10.030;2023-06-10T05:43:58;11.85;;;4.20;;
68714;SDS011;55692;53.356;10.030;2023-06-10T05:46:24;10.35;;;2.28;;
68714;SDS011;55692;53.356;10.030;2023-06-10T05:48:50;11.18;;;2.67;;
68714;SDS011;55692;53.356;10.030;2023-06-10T05:51:16;11.57;;;2.83;;
68714;SDS011;55692;53.356;10.030;2023-06-10T05:53:42;6.00;;;2.53;;
68714;SDS011;55692;53.356;10.030;2023-06-10T05:56:08;9.02;;;2.67;;
68714;SDS011;55692;53.356;10.030;2023-06-10T05:58:34;13.70;;;2.75;;
68714;SDS011;55692;53.356;10.030;2023-06-10T06:01:00;8.98;;;2.92;;
68714;SDS011;55692;53.356;10.030;2023-06-10T06:03:26;8.60;;;2.30;;
68714;SDS011;55692;53.356;10.030;2023-06-10T06:05:53;7.68;;;2.38;;
68714;SDS011;55692;53.356;10.030;2023-06-10T06:08:19;10.68;;;2.70;;
68714;SDS011;55692;53.356;10.030;2023-06-10T06:10:46;6.85;;;2.58;;
68714;SDS011;55692;53.356;10.030;2023-06-10T06:13:12;7.85;;;2.67;;
68714;SDS011;55692;53.356;10.030;2023-06-10T06:15:38;8.35;;;2.58;;
68714;SDS011;55692;53.356;10.030;2023-06-10T06:18:05;9.70;;;2.80;;
68714;SDS011;55692;53.356;10.030;2023-06-10T06:20:31;10.50;;;2.60;;
68714;SDS011;55692;53.356;10.030;2023-06-10T06:22:57;5.82;;;2.50;;
68714;SDS011;55692;53.356;10.030;2023-06-10T06:25:23;7.57;;;2.15;;
68714;SDS011;55692;53.356;10.030;2023-06-10T06:27:49;8.18;;;2.42;;
68714;SDS011;55692;53.356;10.030;2023-06-10T06:30:14;9.27;;;2.10;;
68714;SDS011;55692;53.356;10.030;2023-06-10T06:32:41;9.20;;;2.38;;
68714;SDS011;55692;53.356;10.030;2023-06-10T06:35:07;7.32;;;2.53;;
68714;SDS011;55692;53.356;10.030;2023-06-10T06:37:33;9.68;;;2.15;;
68714;SDS011;55692;53.356;10.030;2023-06-10T06:40:00;7.45;;;2.25;;
68714;SDS011;55692;53.356;10.030;2023-06-10T06:42:26;6.78;;;2.10;;
68714;SDS011;55692;53.356;10.030;2023-06-10T06:44:52;6.38;;;2.00;;
68714;SDS011;55692;53.356;10.030;2023-06-10T06:47:18;5.90;;;2.00;;
68714;SDS011;55692;53.356;10.030;2023-06-10T06:49:47;7.13;;;1.80;;
68714;SDS011;55692;53.356;10.030;2023-06-10T06:52:14;8.98;;;2.55;;
68714;SDS011;55692;53.356;10.030;2023-06-10T06:54:41;7.40;;;2.00;;
68714;SDS011;55692;53.356;10.030;2023-06-10T06:57:07;5.72;;;1.83;;
68714;SDS011;55692;53.356;10.030;2023-06-10T06:59:33;6.07;;;1.65;;
68714;SDS011;55692;53.356;10.030;2023-06-10T07:01:59;5.90;;;1.60;;
68714;SDS011;55692;53.356;10.030;2023-06-10T07:04:25;6.13;;;1.95;;
68714;SDS011;55692;53.356;10.030;2023-06-10T07:06:51;7.93;;;2.13;;
68714;SDS011;55692;53.356;10.030;2023-06-10T07:09:17;8.70;;;2.15;;
68714;SDS011;55692;53.356;10.030;2023-06-10T07:11:43;8.93;;;2.28;;
68714;SDS011;55692;53.356;10.030;2023-06-10T07:14:09;4.68;;;1.65;;
68714;SDS011;55692;53.356;10.030;2023-06-10T07:16:35;5.90;;;1.85;;
68714;SDS011;55692;53.356;10.030;2023-06-10T07:19:01;6.50;;;2.33;;
68714;SDS011;55692;53.356;10.030;2023-06-10T07:21:27;3.00;;;1.55;;
68714;SDS011;55692;53.356;10.030;2023-06-10T07:23:53;5.75;;;2.35;;
68714;SDS011;55692;53.356;10.030;2023-06-10T07:26:21;4.43;;;1.80;;
68714;SDS011;55692;53.356;10.030;2023-06-10T07:28:47;7.55;;;2.03;;
68714;SDS011;55692;53.356;10.030;2023-06-10T07:31:13;7.20;;;1.92;;
68714;SDS011;55692;53.356;10.030;2023-06-10T07:33:39;8.80;;;2.60;;
68714;SDS011;55692;53.356;10.030;2023-06-10T07:36:06;7.57;;;2.13;;
68714;SDS011;55692;53.356;10.030;2023-06-10T07:38:32;7.30;;;1.73;;
68714;SDS011;55692;53.356;10.030;2023-06-10T07:40:59;9.02;;;2.10;;
68714;SDS011;55692;53.356;10.030;2023-06-10T07:43:25;6.45;;;1.98;;
68714;SDS011;55692;53.356;10.030;2023-06-10T07:45:51;7.45;;;2.30;;
68714;SDS011;55692;53.356;10.030;2023-06-10T07:48:17;6.18;;;2.22;;
68714;SDS011;55692;53.356;10.030;2023-06-10T07:50:43;7.07;;;2.08;;
68714;SDS011;55692;53.356;10.030;2023-06-10T07:53:09;8.00;;;2.13;;
68714;SDS011;55692;53.356;10.030;2023-06-10T07:55:35;7.85;;;2.40;;
68714;SDS011;55692;53.356;10.030;2023-06-10T07:58:01;6.70;;;2.13;;
68714;SDS011;55692;53.356;10.030;2023-06-10T08:00:27;6.55;;;2.00;;
68714;SDS011;55692;53.356;10.030;2023-06-10T08:02:53;8.38;;;1.98;;
68714;SDS011;55692;53.356;10.030;2023-06-10T08:05:20;6.93;;;2.15;;
68714;SDS011;55692;53.356;10.030;2023-06-10T08:07:46;5.80;;;1.88;;
68714;SDS011;55692;53.356;10.030;2023-06-10T08:10:12;7.18;;;2.35;;
68714;SDS011;55692;53.356;10.030;2023-06-10T08:12:38;6.32;;;2.75;;
68714;SDS011;55692;53.356;10.030;2023-06-10T08:15:05;6.47;;;2.42;;
68714;SDS011;55692;53.356;10.030;2023-06-10T08:17:31;11.00;;;2.03;;
68714;SDS011;55692;53.356;10.030;2023-06-10T08:19:57;12.20;;;2.72;;
68714;SDS011;55692;53.356;10.030;2023-06-10T08:22:23;6.20;;;2.05;;
68714;SDS011;55692;53.356;10.030;2023-06-10T08:24:50;7.28;;;2.20;;
68714;SDS011;55692;53.356;10.030;2023-06-10T08:27:16;8.20;;;2.28;;
68714;SDS011;55692;53.356;10.030;2023-06-10T08:29:42;8.13;;;2.60;;
68714;SDS011;55692;53.356;10.030;2023-06-10T08:32:08;5.65;;;2.20;;
68714;SDS011;55692;53.356;10.030;2023-06-10T08:34:34;9.20;;;2.17;;
68714;SDS011;55692;53.356;10.030;2023-06-10T08:37:01;6.95;;;2.30;;
68714;SDS011;55692;53.356;10.030;2023-06-10T08:39:27;9.65;;;2.55;;
68714;SDS011;55692;53.356;10.030;2023-06-10T08:42:00;6.05;;;2.25;;
68714;SDS011;55692;53.356;10.030;2023-06-10T08:44:31;6.22;;;2.22;;
68714;SDS011;55692;53.356;10.030;2023-06-10T08:46:59;5.20;;;2.00;;
68714;SDS011;55692;53.356;10.030;2023-06-10T08:49:26;7.45;;;1.95;;
68714;SDS011;55692;53.356;10.030;2023-06-10T08:51:57;11.77;;;2.42;;
68714;SDS011;55692;53.356;10.030;2023-06-10T08:54:25;9.97;;;2.70;;
68714;SDS011;55692;53.356;10.030;2023-06-10T08:56:51;6.38;;;2.38;;
68714;SDS011;55692;53.356;10.030;2023-06-10T08:59:19;8.68;;;2.58;;
68714;SDS011;55692;53.356;10.030;2023-06-10T09:01:46;10.13;;;2.83;;
68714;SDS011;55692;53.356;10.030;2023-06-10T09:04:12;7.10;;;2.42;;
68714;SDS011;55692;53.356;10.030;2023-06-10T09:06:39;10.32;;;2.72;;
68714;SDS011;55692;53.356;10.030;2023-06-10T09:09:06;8.07;;;2.10;;
68714;SDS011;55692;53.356;10.030;2023-06-10T09:11:33;5.07;;;2.17;;
68714;SDS011;55692;53.356;10.030;2023-06-10T09:13:59;7.38;;;2.47;;
68714;SDS011;55692;53.356;10.030;2023-06-10T09:16:25;6.60;;;2.15;;
68714;SDS011;55692;53.356;10.030;2023-06-10T09:18:51;6.85;;;2.50;;
68714;SDS011;55692;53.356;10.030;2023-06-10T09:21:23;6.60;;;2.38;;
68714;SDS011;55692;53.356;10.030;2023-06-10T09:23:50;5.90;;;2.10;;
68714;SDS011;55692;53.356;10.030;2023-06-10T09:26:16;7.85;;;2.13;;
68714;SDS011;55692;53.356;10.030;2023-06-10T09:28:43;7.18;;;2.40;;
68714;SDS011;55692;53.356;10.030;2023-06-10T09:31:10;9.02;;;2.05;;
68714;SDS011;55692;53.356;10.030;2023-06-10T09:33:37;5.25;;;2.30;;
68714;SDS011;55692;53.356;10.030;2023-06-10T09:36:06;5.47;;;2.53;;
68714;SDS011;55692;53.356;10.030;2023-06-10T09:38:33;8.13;;;2.47;;
68714;SDS011;55692;53.356;10.030;2023-06-10T09:41:00;6.97;;;2.50;;
68714;SDS011;55692;53.356;10.030;2023-06-10T09:43:38;4.90;;;2.10;;
68714;SDS011;55692;53.356;10.030;2023-06-10T09:46:05;9.48;;;3.13;;
68714;SDS011;55692;53.356;10.030;2023-06-10T09:48:34;5.45;;;2.28;;
68714;SDS011;55692;53.356;10.030;2023-06-10T09:51:01;6.00;;;2.40;;
68714;SDS011;55692;53.356;10.030;2023-06-10T09:53:26;8.32;;;2.58;;
68714;SDS011;55692;53.356;10.030;2023-06-10T09:55:53;10.75;;;2.35;;
68714;SDS011;55692;53.356;10.030;2023-06-10T09:58:33;7.22;;;2.47;;
68714;SDS011;55692;53.356;10.030;2023-06-10T10:00:59;9.18;;;2.53;;
68714;SDS011;55692;53.356;10.030;2023-06-10T10:03:25;7.78;;;2.47;;
68714;SDS011;55692;53.356;10.030;2023-06-10T10:05:57;5.03;;;2.22;;
68714;SDS011;55692;53.356;10.030;2023-06-10T10:08:24;10.93;;;2.60;;
68714;SDS011;55692;53.356;10.030;2023-06-10T10:10:50;5.53;;;2.50;;
68714;SDS011;55692;53.356;10.030;2023-06-10T10:13:16;5.93;;;2.67;;
68714;SDS011;55692;53.356;10.030;2023-06-10T10:15:43;5.32;;;2.22;;
68714;SDS011;55692;53.356;10.030;2023-06-10T10:18:10;7.90;;;2.20;;
68714;SDS011;55692;53.356;10.030;2023-06-10T10:20:41;11.95;;;3.15;;
68714;SDS011;55692;53.356;10.030;2023-06-10T10:23:11;9.55;;;2.60;;
68714;SDS011;55692;53.356;10.030;2023-06-10T10:25:40;9.38;;;2.90;;
68714;SDS011;55692;53.356;10.030;2023-06-10T10:28:10;5.68;;;2.22;;
68714;SDS011;55692;53.356;10.030;2023-06-10T10:30:40;6.20;;;2.38;;
68714;SDS011;55692;53.356;10.030;2023-06-10T10:33:18;5.03;;;2.60;;
68714;SDS011;55692;53.356;10.030;2023-06-10T10:35:45;7.18;;;2.70;;
68714;SDS011;55692;53.356;10.030;2023-06-10T10:38:12;7.45;;;2.88;;
68714;SDS011;55692;53.356;10.030;2023-06-10T10:40:38;11.25;;;2.80;;
68714;SDS011;55692;53.356;10.030;2023-06-10T10:43:04;7.88;;;2.58;;
68714;SDS011;55692;53.356;10.030;2023-06-10T10:45:32;4.07;;;2.38;;
68714;SDS011;55692;53.356;10.030;2023-06-10T10:47:59;13.52;;;3.15;;
68714;SDS011;55692;53.356;10.030;2023-06-10T10:50:30;9.32;;;2.53;;
68714;SDS011;55692;53.356;10.030;2023-06-10T10:53:00;4.97;;;2.47;;
68714;SDS011;55692;53.356;10.030;2023-06-10T10:55:26;9.05;;;2.85;;
68714;SDS011;55692;53.356;10.030;2023-06-10T10:58:02;5.45;;;2.13;;
68714;SDS011;55692;53.356;10.030;2023-06-10T11:00:33;7.45;;;2.47;;
68714;SDS011;55692;53.356;10.030;2023-06-10T11:03:04;4.72;;;2.40;;
68714;SDS011;55692;53.356;10.030;2023-06-10T11:07:57;9.90;;;3.05;;
68714;SDS011;55692;53.356;10.030;2023-06-10T11:10:28;6.60;;;2.75;;
68714;SDS011;55692;53.356;10.030;2023-06-10T11:12:55;7.50;;;3.40;;
68714;SDS011;55692;53.356;10.030;2023-06-10T11:15:23;7.03;;;2.63;;
68714;SDS011;55692;53.356;10.030;2023-06-10T11:23:34;4.78;;;2.90;;
68714;SDS011;55692;53.356;10.030;2023-06-10T11:28:40;8.27;;;3.10;;
68714;SDS011;55692;53.356;10.030;2023-06-10T11:31:06;8.43;;;3.50;;
68714;SDS011;55692;53.356;10.030;2023-06-10T11:33:32;7.13;;;3.05;;
68714;SDS011;55692;53.356;10.030;2023-06-10T11:35:59;7.47;;;3.30;;
68714;SDS011;55692;53.356;10.030;2023-06-10T11:38:25;7.30;;;3.67;;
68714;SDS011;55692;53.356;10.030;2023-06-10T11:40:51;11.00;;;3.03;;
68714;SDS011;55692;53.356;10.030;2023-06-10T11:43:17;8.60;;;3.13;;
68714;SDS011;55692;53.356;10.030;2023-06-10T11:45:44;8.52;;;3.53;;
68714;SDS011;55692;53.356;10.030;2023-06-10T11:48:10;7.38;;;3.65;;
68714;SDS011;55692;53.356;10.030;2023-06-10T11:50:36;5.35;;;3.60;;
68714;SDS011;55692;53.356;10.030;2023-06-10T11:53:03;6.47;;;3.38;;
68714;SDS011;55692;53.356;10.030;2023-06-10T11:55:45;6.72;;;3.72;;
68714;SDS011;55692;53.356;10.030;2023-06-10T11:58:15;7.45;;;3.55;;
68714;SDS011;55692;53.356;10.030;2023-06-10T12:00:47;13.48;;;3.65;;
68714;SDS011;55692;53.356;10.030;2023-06-10T12:03:14;7.78;;;3.90;;
68714;SDS011;55692;53.356;10.030;2023-06-10T12:05:40;10.48;;;3.83;;
68714;SDS011;55692;53.356;10.030;2023-06-10T12:08:10;10.80;;;4.43;;
68714;SDS011;55692;53.356;10.030;2023-06-10T12:10:42;8.10;;;3.90;;
68714;SDS011;55692;53.356;10.030;2023-06-10T12:13:09;7.70;;;3.65;;
68714;SDS011;55692;53.356;10.030;2023-06-10T12:15:35;10.18;;;4.00;;
68714;SDS011;55692;53.356;10.030;2023-06-10T12:18:01;7.00;;;3.60;;
68714;SDS011;55692;53.356;10.030;2023-06-10T12:20:29;6.30;;;3.47;;
68714;SDS011;55692;53.356;10.030;2023-06-10T12:22:55;6.07;;;3.25;;
68714;SDS011;55692;53.356;10.030;2023-06-10T12:25:25;11.82;;;3.60;;
68714;SDS011;55692;53.356;10.030;2023-06-10T12:27:55;7.75;;;4.20;;
68714;SDS011;55692;53.356;10.030;2023-06-10T12:30:24;11.45;;;4.43;;
68714;SDS011;55692;53.356;10.030;2023-06-10T12:32:51;10.88;;;4.40;;
68714;SDS011;55692;53.356;10.030;2023-06-10T12:35:18;6.47;;;3.70;;
68714;SDS011;55692;53.356;10.030;2023-06-10T12:40:28;7.88;;;3.20;;
68714;SDS011;55692;53.356;10.030;2023-06-10T12:42:56;8.07;;;3.72;;
68714;SDS011;55692;53.356;10.030;2023-06-10T12:45:32;8.23;;;3.13;;
68714;SDS011;55692;53.356;10.030;2023-06-10T12:50:31;9.90;;;3.22;;
68714;SDS011;55692;53.356;10.030;2023-06-10T12:52:58;8.23;;;3.22;;
68714;SDS011;55692;53.356;10.030;2023-06-10T12:55:25;6.38;;;3.45;;
68714;SDS011;55692;53.356;10.030;2023-06-10T12:57:51;6.55;;;3.22;;
68714;SDS011;55692;53.356;10.030;2023-06-10T13:00:18;5.43;;;2.92;;
68714;SDS011;55692;53.356;10.030;2023-06-10T13:02:44;8.02;;;3.33;;
68714;SDS011;55692;53.356;10.030;2023-06-10T13:05:10;5.68;;;3.50;;
68714;SDS011;55692;53.356;10.030;2023-06-10T13:07:36;7.90;;;3.42;;
68714;SDS011;55692;53.356;10.030;2023-06-10T13:10:02;6.88;;;3.55;;
68714;SDS011;55692;53.356;10.030;2023-06-10T13:12:28;6.05;;;3.20;;
68714;SDS011;55692;53.356;10.030;2023-06-10T13:14:55;9.75;;;3.22;;
68714;SDS011;55692;53.356;10.030;2023-06-10T13:17:21;5.70;;;3.42;;
68714;SDS011;55692;53.356;10.030;2023-06-10T13:19:49;18.70;;;4.25;;
68714;SDS011;55692;53.356;10.030;2023-06-10T13:22:15;7.88;;;4.80;;
68714;SDS011;55692;53.356;10.030;2023-06-10T13:24:41;5.63;;;3.33;;
68714;SDS011;55692;53.356;10.030;2023-06-10T13:27:08;7.95;;;3.20;;
68714;SDS011;55692;53.356;10.030;2023-06-10T13:29:34;9.10;;;3.45;;
68714;SDS011;55692;53.356;10.030;2023-06-10T13:32:00;7.85;;;3.47;;
68714;SDS011;55692;53.356;10.030;2023-06-10T13:34:26;7.97;;;3.70;;
68714;SDS011;55692;53.356;10.030;2023-06-10T13:36:53;9.13;;;3.72;;
68714;SDS011;55692;53.356;10.030;2023-06-10T13:39:19;6.68;;;3.47;;
68714;SDS011;55692;53.356;10.030;2023-06-10T13:41:45;7.00;;;3.58;;
68714;SDS011;55692;53.356;10.030;2023-06-10T13:44:11;7.90;;;3.60;;
68714;SDS011;55692;53.356;10.030;2023-06-10T13:46:37;6.90;;;4.00;;
68714;SDS011;55692;53.356;10.030;2023-06-10T13:49:03;5.75;;;3.53;;
68714;SDS011;55692;53.356;10.030;2023-06-10T13:51:29;6.07;;;3.40;;
68714;SDS011;55692;53.356;10.030;2023-06-10T13:53:55;5.78;;;3.28;;
68714;SDS011;55692;53.356;10.030;2023-06-10T13:56:21;7.30;;;3.38;;
68714;SDS011;55692;53.356;10.030;2023-06-10T13:58:48;7.00;;;3.30;;
68714;SDS011;55692;53.356;10.030;2023-06-10T14:01:14;8.30;;;3.78;;
68714;SDS011;55692;53.356;10.030;2023-06-10T14:03:40;7.68;;;3.45;;
68714;SDS011;55692;53.356;10.030;2023-06-10T14:06:06;8.00;;;3.33;;
68714;SDS011;55692;53.356;10.030;2023-06-10T14:08:32;9.02;;;3.97;;
68714;SDS011;55692;53.356;10.030;2023-06-10T14:10:58;7.32;;;3.60;;
68714;SDS011;55692;53.356;10.030;2023-06-10T14:13:24;10.68;;;4.20;;
68714;SDS011;55692;53.356;10.030;2023-06-10T14:15:50;10.15;;;3.95;;
68714;SDS011;55692;53.356;10.030;2023-06-10T14:18:16;7.80;;;3.63;;
68714;SDS011;55692;53.356;10.030;2023-06-10T14:20:42;7.47;;;3.70;;
68714;SDS011;55692;53.356;10.030;2023-06-10T14:23:08;6.72;;;3.67;;
68714;SDS011;55692;53.356;10.030;2023-06-10T14:25:34;9.73;;;3.80;;
68714;SDS011;55692;53.356;10.030;2023-06-10T14:28:00;6.35;;;3.10;;
68714;SDS011;55692;53.356;10.030;2023-06-10T14:30:27;9.23;;;3.88;;
68714;SDS011;55692;53.356;10.030;2023-06-10T14:32:53;10.95;;;3.75;;
68714;SDS011;55692;53.356;10.030;2023-06-10T14:35:19;8.25;;;3.75;;
68714;SDS011;55692;53.356;10.030;2023-06-10T14:37:46;7.55;;;3.67;;
68714;SDS011;55692;53.356;10.030;2023-06-10T14:40:12;6.28;;;3.40;;
68714;SDS011;55692;53.356;10.030;2023-06-10T14:42:38;6.80;;;3.90;;
68714;SDS011;55692;53.356;10.030;2023-06-10T14:45:04;9.02;;;3.72;;